createdAt,value
2022-10-20T00:00:41.301Z,8.53
2022-10-20T00:03:07.815Z,8.13
2022-10-20T00:05:34.404Z,8.03
2022-10-20T00:08:00.961Z,7.80
2022-10-20T00:10:27.365Z,8.97
2022-10-20T00:12:53.762Z,9.10
2022-10-20T00:15:20.211Z,8.13
2022-10-20T00:17:46.681Z,8.83
2022-10-20T00:22:44.464Z,9.40
2022-10-20T00:25:10.928Z,9.37
2022-10-20T00:27:37.341Z,8.83
2022-10-20T00:30:04.122Z,9.90
2022-10-20T00:32:30.528Z,8.00
2022-10-20T00:34:57.009Z,8.60
2022-10-20T00:37:23.482Z,9.57
2022-10-20T00:39:49.895Z,10.43
2022-10-20T00:42:16.880Z,10.17
2022-10-20T00:44:51.054Z,10.43
2022-10-20T00:47:18.682Z,9.93
2022-10-20T00:49:45.154Z,9.03
2022-10-20T00:52:11.559Z,8.60
2022-10-20T00:54:38.017Z,8.83
2022-10-20T00:57:04.427Z,9.07
2022-10-20T00:59:31.940Z,9.33
2022-10-20T01:01:58.439Z,9.93
2022-10-20T01:04:25.217Z,10.53
2022-10-20T01:06:51.614Z,9.20
2022-10-20T01:09:18.114Z,9.83
2022-10-20T01:11:44.506Z,9.33
2022-10-20T01:14:20.175Z,8.33
2022-10-20T01:16:52.813Z,7.17
2022-10-20T01:19:37.991Z,6.80
2022-10-20T01:22:08.533Z,6.83
2022-10-20T01:24:38.104Z,7.07
2022-10-20T01:27:21.748Z,6.40
2022-10-20T01:29:51.540Z,7.00
2022-10-20T01:32:24.895Z,7.87
2022-10-20T01:34:53.027Z,7.10
2022-10-20T01:37:47.563Z,7.30
2022-10-20T01:40:12.842Z,8.03
2022-10-20T01:42:39.440Z,6.87
2022-10-20T01:45:06.156Z,7.63
2022-10-20T01:47:32.696Z,6.87
2022-10-20T01:49:59.227Z,7.87
2022-10-20T01:52:25.711Z,7.43
2022-10-20T01:54:52.139Z,7.70
2022-10-20T01:57:37.265Z,7.13
2022-10-20T02:00:10.353Z,7.40
2022-10-20T02:02:36.959Z,7.43
2022-10-20T02:05:03.489Z,7.87
2022-10-20T02:07:30.424Z,7.20
2022-10-20T02:10:09.761Z,7.43
2022-10-20T02:12:37.814Z,6.37
2022-10-20T02:15:04.765Z,6.70
2022-10-20T02:17:31.232Z,5.97
2022-10-20T02:19:57.627Z,7.70
2022-10-20T02:22:24.070Z,7.60
2022-10-20T02:24:50.512Z,8.00
2022-10-20T02:27:20.959Z,7.80
2022-10-20T02:29:50.979Z,8.07
2022-10-20T02:32:17.486Z,7.77
2022-10-20T02:34:44.463Z,8.70
2022-10-20T02:37:11.064Z,6.83
2022-10-20T02:39:37.627Z,7.20
2022-10-20T02:42:04.845Z,7.60
2022-10-20T02:44:31.308Z,7.30
2022-10-20T02:46:57.746Z,8.13
2022-10-20T02:49:25.281Z,7.83
2022-10-20T02:51:51.713Z,7.70
2022-10-20T02:54:18.157Z,7.63
2022-10-20T02:56:44.635Z,7.63
2022-10-20T02:59:14.648Z,8.40
2022-10-20T03:01:41.298Z,8.07
2022-10-20T03:04:07.871Z,7.37
2022-10-20T03:06:34.534Z,7.83
2022-10-20T03:09:01.022Z,7.83
2022-10-20T03:11:27.490Z,7.33
2022-10-20T03:13:54.102Z,8.00
2022-10-20T03:16:20.578Z,8.30
2022-10-20T03:18:47.198Z,7.10
2022-10-20T03:21:13.640Z,7.43
2022-10-20T03:23:40.183Z,7.00
2022-10-20T03:26:07.097Z,8.37
2022-10-20T03:28:33.649Z,7.80
2022-10-20T03:31:00.161Z,8.63
2022-10-20T03:33:26.689Z,8.73
2022-10-20T03:35:53.179Z,8.37
2022-10-20T03:38:19.632Z,8.47
2022-10-20T03:40:46.231Z,8.30
2022-10-20T03:43:12.869Z,9.57
2022-10-20T03:45:39.295Z,8.97
2022-10-20T03:48:05.828Z,10.43
2022-10-20T03:50:32.357Z,9.57
2022-10-20T03:52:58.865Z,10.33
2022-10-20T03:55:25.314Z,9.90
2022-10-20T03:57:51.769Z,9.97
2022-10-20T04:00:18.266Z,11.00
2022-10-20T04:02:46.815Z,11.57
2022-10-20T04:05:13.737Z,11.67
2022-10-20T04:07:40.236Z,11.60
2022-10-20T04:10:07.095Z,10.80
2022-10-20T04:12:33.834Z,10.17
2022-10-20T04:15:00.511Z,10.33
2022-10-20T04:17:27.027Z,10.10
2022-10-20T04:19:53.523Z,9.60
2022-10-20T04:22:19.958Z,9.17
2022-10-20T04:24:46.423Z,9.10
2022-10-20T04:27:12.860Z,9.10
2022-10-20T04:29:39.331Z,9.50
2022-10-20T04:32:05.841Z,11.13
2022-10-20T04:34:32.418Z,9.93
2022-10-20T04:36:58.885Z,11.87
2022-10-20T04:39:25.538Z,10.10
2022-10-20T04:41:52.031Z,10.03
2022-10-20T04:44:18.534Z,10.07
2022-10-20T04:46:44.968Z,11.07
2022-10-20T04:49:11.409Z,12.53
2022-10-20T04:51:37.903Z,14.83
2022-10-20T04:56:31.760Z,16.30
2022-10-20T04:58:58.398Z,19.37
2022-10-20T05:01:26.322Z,15.60
2022-10-20T05:03:52.845Z,18.43
2022-10-20T05:06:20.159Z,17.40
2022-10-20T05:08:47.112Z,17.40
2022-10-20T05:11:14.916Z,18.03
2022-10-20T05:13:41.384Z,18.27
2022-10-20T05:16:08.032Z,18.73
2022-10-20T05:18:34.594Z,16.80
2022-10-20T05:21:08.798Z,16.03
2022-10-20T05:23:36.120Z,15.73
2022-10-20T05:26:06.113Z,15.17
2022-10-20T05:28:32.586Z,15.00
2022-10-20T05:31:05.826Z,14.53
2022-10-20T05:33:32.370Z,13.53
2022-10-20T05:35:58.857Z,14.90
2022-10-20T05:38:25.298Z,14.77
2022-10-20T05:40:51.732Z,12.97
2022-10-20T05:43:18.237Z,11.53
2022-10-20T05:45:44.664Z,13.57
2022-10-20T05:48:11.098Z,12.83
2022-10-20T05:50:38.755Z,13.30
2022-10-20T05:53:05.270Z,14.60
2022-10-20T05:55:31.693Z,13.40
2022-10-20T05:57:58.197Z,14.77
2022-10-20T06:00:30.920Z,15.03
2022-10-20T06:02:58.056Z,17.30
2022-10-20T06:05:24.533Z,15.00
2022-10-20T06:07:53.011Z,16.30
2022-10-20T06:10:19.441Z,16.47
2022-10-20T06:12:45.911Z,17.03
2022-10-20T06:15:12.357Z,17.60
2022-10-20T06:17:38.853Z,17.97
2022-10-20T06:20:05.436Z,17.60
2022-10-20T06:22:31.894Z,16.20
2022-10-20T06:24:58.352Z,18.23
2022-10-20T06:27:24.834Z,18.27
2022-10-20T06:29:51.423Z,16.80
2022-10-20T06:32:20.767Z,14.80
2022-10-20T06:34:47.260Z,16.70
2022-10-20T06:37:13.734Z,16.97
2022-10-20T06:39:40.265Z,16.07
2022-10-20T06:42:09.649Z,16.73
2022-10-20T06:44:38.641Z,15.33
2022-10-20T06:47:10.343Z,16.70
2022-10-20T06:49:36.806Z,17.43
2022-10-20T06:52:03.554Z,14.87
2022-10-20T06:54:30.132Z,16.07
2022-10-20T06:56:56.633Z,15.47
2022-10-20T06:59:23.090Z,13.93
2022-10-20T07:01:49.706Z,13.80
2022-10-20T07:04:16.259Z,15.10
2022-10-20T07:06:43.247Z,13.03
2022-10-20T07:09:12.672Z,13.70
2022-10-20T07:11:39.139Z,12.77
2022-10-20T07:14:05.671Z,12.43
2022-10-20T07:16:32.614Z,12.13
2022-10-20T07:18:59.278Z,11.43
2022-10-20T07:21:34.977Z,11.83
2022-10-20T07:24:04.517Z,10.97
2022-10-20T07:26:31.894Z,10.30
2022-10-20T07:28:59.053Z,11.07
2022-10-20T07:31:28.503Z,9.27
2022-10-20T07:34:07.127Z,7.30
2022-10-20T07:36:40.944Z,6.57
2022-10-20T07:39:07.580Z,6.07
2022-10-20T07:41:34.221Z,5.43
2022-10-20T07:44:00.670Z,4.13
2022-10-20T07:46:27.138Z,3.70
2022-10-20T07:48:53.782Z,3.07
2022-10-20T07:51:26.478Z,3.60
2022-10-20T07:53:56.896Z,3.23
2022-10-20T07:56:28.373Z,3.63
2022-10-20T07:58:54.901Z,3.07
2022-10-20T08:01:21.558Z,3.37
2022-10-20T08:03:48.073Z,3.67
2022-10-20T08:06:14.649Z,3.90
2022-10-20T08:08:41.189Z,4.73
2022-10-20T08:11:07.813Z,5.27
2022-10-20T08:13:34.227Z,4.90
2022-10-20T08:16:03.397Z,4.93
2022-10-20T08:21:14.029Z,5.60
2022-10-20T08:23:41.075Z,4.90
2022-10-20T08:26:10.716Z,5.30
2022-10-20T08:28:38.089Z,4.17
2022-10-20T08:31:04.939Z,4.40
2022-10-20T08:33:31.789Z,4.70
2022-10-20T08:36:04.860Z,4.97
2022-10-20T08:38:31.352Z,3.73
2022-10-20T08:40:58.244Z,3.73
2022-10-20T08:43:24.766Z,4.03
2022-10-20T08:45:51.268Z,4.37
2022-10-20T08:48:22.249Z,3.23
2022-10-20T08:50:49.514Z,4.03
2022-10-20T08:53:15.961Z,3.83
2022-10-20T08:55:43.234Z,3.97
2022-10-20T08:58:19.476Z,3.40
2022-10-20T09:00:46.282Z,3.87
2022-10-20T09:03:14.227Z,4.03
2022-10-20T09:05:41.334Z,3.80
2022-10-20T09:08:08.016Z,3.20
2022-10-20T09:10:38.574Z,2.70
2022-10-20T09:13:24.708Z,2.00
2022-10-20T09:15:51.601Z,1.47
2022-10-20T09:18:18.132Z,1.63
2022-10-20T09:20:49.120Z,2.07
2022-10-20T09:23:38.995Z,2.50
2022-10-20T09:26:02.965Z,1.80
2022-10-20T09:28:34.980Z,1.80
2022-10-20T09:31:04.912Z,1.80
2022-10-20T09:33:32.279Z,1.67
2022-10-20T09:36:04.849Z,1.67
2022-10-20T09:38:32.509Z,2.50
2022-10-20T09:41:03.273Z,2.70
2022-10-20T09:43:29.745Z,2.47
2022-10-20T09:45:57.122Z,2.87
2022-10-20T09:48:26.665Z,2.23
2022-10-20T09:50:55.500Z,2.90
2022-10-20T09:53:23.905Z,2.47
2022-10-20T09:55:50.442Z,1.60
2022-10-20T09:58:29.176Z,2.07
2022-10-20T10:01:02.432Z,2.40
2022-10-20T10:03:29.166Z,2.20
2022-10-20T10:05:56.445Z,2.00
2022-10-20T10:08:23.744Z,1.93
2022-10-20T10:11:02.449Z,2.10
2022-10-20T10:13:29.939Z,1.70
2022-10-20T10:16:03.836Z,1.47
2022-10-20T10:18:30.407Z,1.57
2022-10-20T10:20:57.932Z,1.90
2022-10-20T10:23:25.479Z,1.90
2022-10-20T10:25:52.104Z,2.07
2022-10-20T10:28:21.638Z,1.67
2022-10-20T10:30:50.090Z,1.50
2022-10-20T10:33:22.912Z,1.60
2022-10-20T10:35:49.343Z,1.00
2022-10-20T10:38:15.760Z,1.80
2022-10-20T10:40:45.249Z,1.27
2022-10-20T10:43:29.752Z,1.20
2022-10-20T10:46:11.091Z,0.90
2022-10-20T10:48:57.505Z,1.20
2022-10-20T10:51:43.238Z,1.73
2022-10-20T10:54:12.758Z,1.00
2022-10-20T10:56:46.754Z,1.50
2022-10-20T10:59:33.681Z,1.20
2022-10-20T11:02:12.352Z,1.60
2022-10-20T11:04:57.510Z,1.50
2022-10-20T11:07:23.979Z,0.90
2022-10-20T11:10:02.861Z,1.00
2022-10-20T11:12:32.292Z,1.00
2022-10-20T11:15:02.925Z,1.10
2022-10-20T11:17:37.490Z,1.20
2022-10-20T11:20:12.985Z,1.00
2022-10-20T11:22:58.234Z,1.00
2022-10-20T11:25:24.862Z,0.97
2022-10-20T11:27:51.338Z,0.80
2022-10-20T11:30:18.914Z,0.93
2022-10-20T11:32:54.714Z,1.13
2022-10-20T11:35:23.136Z,0.70
2022-10-20T11:37:55.798Z,0.70
2022-10-20T11:40:29.589Z,0.80
2022-10-20T11:43:08.887Z,0.70
2022-10-20T11:45:38.919Z,0.80
2022-10-20T11:48:23.739Z,0.50
2022-10-20T11:51:00.468Z,0.80
2022-10-20T11:53:39.246Z,0.60
2022-10-20T11:56:11.548Z,0.53
2022-10-20T11:58:42.714Z,0.60
2022-10-20T12:01:24.783Z,0.50
2022-10-20T12:04:09.755Z,0.50
2022-10-20T12:06:54.881Z,0.73
2022-10-20T12:09:44.671Z,0.50
2022-10-20T12:12:21.228Z,0.53
2022-10-20T12:14:54.105Z,0.57
2022-10-20T12:17:20.501Z,0.60
2022-10-20T12:19:49.109Z,0.60
2022-10-20T12:22:15.634Z,0.87
2022-10-20T12:24:42.759Z,0.70
2022-10-20T12:27:09.188Z,0.80
2022-10-20T12:29:35.645Z,0.80
2022-10-20T12:32:21.410Z,0.60
2022-10-20T12:34:48.559Z,0.30
2022-10-20T12:37:19.257Z,0.60
2022-10-20T12:39:46.201Z,0.40
2022-10-20T12:42:24.864Z,0.50
2022-10-20T12:44:51.365Z,0.50
2022-10-20T12:47:22.686Z,0.80
2022-10-20T12:50:21.618Z,0.97
2022-10-20T12:52:48.164Z,0.53
2022-10-20T12:55:21.265Z,0.53
2022-10-20T12:57:47.753Z,0.50
2022-10-20T13:00:20.210Z,0.60
2022-10-20T13:02:50.849Z,0.60
2022-10-20T13:05:17.322Z,0.50
2022-10-20T13:07:46.947Z,0.60
2022-10-20T13:10:25.543Z,0.50
2022-10-20T13:12:52.012Z,0.80
2022-10-20T13:15:18.502Z,0.70
2022-10-20T13:17:48.788Z,0.50
2022-10-20T13:20:25.897Z,0.50
2022-10-20T13:22:56.370Z,0.50
2022-10-20T13:25:41.808Z,0.70
2022-10-20T13:28:15.237Z,0.70
2022-10-20T13:30:58.363Z,0.60
2022-10-20T13:33:51.474Z,0.60
2022-10-20T13:36:39.915Z,0.60
2022-10-20T13:39:12.822Z,0.60
2022-10-20T13:41:44.538Z,0.70
2022-10-20T13:44:31.174Z,0.60
2022-10-20T13:47:07.354Z,0.70
2022-10-20T13:49:40.131Z,0.80
2022-10-20T13:52:08.908Z,1.07
2022-10-20T13:54:36.001Z,0.90
2022-10-20T13:57:02.438Z,1.20
2022-10-20T13:59:29.651Z,1.13
2022-10-20T14:01:57.153Z,1.00
2022-10-20T14:04:30.930Z,1.03
2022-10-20T14:07:04.326Z,5.10
2022-10-20T14:09:30.901Z,1.33
2022-10-20T14:12:01.407Z,2.20
2022-10-20T14:14:28.090Z,1.30
2022-10-20T14:16:56.134Z,0.90
2022-10-20T14:19:33.591Z,1.15
2022-10-20T14:22:10.106Z,0.90
2022-10-20T14:24:37.646Z,1.10
2022-10-20T14:27:04.607Z,1.20
2022-10-20T14:29:31.858Z,0.90
2022-10-20T14:31:58.422Z,1.00
2022-10-20T14:34:25.877Z,1.20
2022-10-20T14:36:52.398Z,1.40
2022-10-20T14:39:38.143Z,1.23
2022-10-20T14:42:06.600Z,1.13
2022-10-20T14:44:33.075Z,1.30
2022-10-20T14:47:00.504Z,1.13
2022-10-20T14:49:27.057Z,1.30
2022-10-20T14:51:56.636Z,1.30
2022-10-20T14:54:24.363Z,1.50
2022-10-20T14:56:53.997Z,1.00
2022-10-20T14:59:30.539Z,1.20
2022-10-20T15:02:11.512Z,1.27
2022-10-20T15:04:38.593Z,1.03
2022-10-20T15:07:13.927Z,1.40
2022-10-20T15:09:50.586Z,1.10
2022-10-20T15:12:28.233Z,1.20
2022-10-20T15:15:02.104Z,1.43
2022-10-20T15:17:36.525Z,1.43
2022-10-20T15:20:21.936Z,1.58
2022-10-20T15:22:50.198Z,1.43
2022-10-20T15:25:18.599Z,1.43
2022-10-20T15:27:44.995Z,1.30
2022-10-20T15:30:17.979Z,1.33
2022-10-20T15:32:44.425Z,1.40
2022-10-20T15:35:20.693Z,1.10
2022-10-20T15:37:50.828Z,1.30
2022-10-20T15:40:17.434Z,1.50
2022-10-20T15:42:43.876Z,1.30
2022-10-20T15:45:17.647Z,1.23
2022-10-20T15:47:44.392Z,1.70
2022-10-20T15:50:11.076Z,2.27
2022-10-20T15:52:37.971Z,2.00
2022-10-20T15:55:31.066Z,2.53
2022-10-20T16:00:41.656Z,1.93
2022-10-20T16:03:10.058Z,2.10
2022-10-20T16:05:36.620Z,1.77
2022-10-20T16:08:03.127Z,1.80
2022-10-20T16:10:29.797Z,2.17
2022-10-20T16:12:56.939Z,2.30
2022-10-20T16:15:27.409Z,2.10
2022-10-20T16:17:56.676Z,2.20
2022-10-20T16:20:23.209Z,2.67
2022-10-20T16:22:49.638Z,2.80
2022-10-20T16:25:16.147Z,2.57
2022-10-20T16:27:43.009Z,3.40
2022-10-20T16:30:09.646Z,3.63
2022-10-20T16:32:36.413Z,3.73
2022-10-20T16:35:06.397Z,3.40
2022-10-20T16:37:33.049Z,3.10
2022-10-20T16:39:59.682Z,3.20
2022-10-20T16:42:27.599Z,3.90
2022-10-20T16:44:54.088Z,3.63
2022-10-20T16:47:20.586Z,3.23
2022-10-20T16:49:47.064Z,3.00
2022-10-20T16:52:13.539Z,2.57
2022-10-20T16:57:12.831Z,3.90
2022-10-20T16:59:39.395Z,4.13
2022-10-20T17:02:05.905Z,4.10
2022-10-20T17:04:32.488Z,4.93
2022-10-20T17:06:58.959Z,4.67
2022-10-20T17:09:25.543Z,5.27
2022-10-20T17:11:51.961Z,6.97
2022-10-20T17:14:18.457Z,7.40
2022-10-20T17:16:44.907Z,7.30
2022-10-20T17:19:11.381Z,6.43
2022-10-20T17:21:38.554Z,6.80
2022-10-20T17:24:05.068Z,6.73
2022-10-20T17:26:31.651Z,6.17
2022-10-20T17:28:58.915Z,6.30
2022-10-20T17:31:25.557Z,7.00
2022-10-20T17:33:52.150Z,7.37
2022-10-20T17:36:19.181Z,7.00
2022-10-20T17:38:45.669Z,7.33
2022-10-20T17:41:13.035Z,7.50
2022-10-20T17:43:39.610Z,7.33
2022-10-20T17:46:09.870Z,7.20
2022-10-20T17:48:36.611Z,7.20
2022-10-20T17:51:10.939Z,7.90
2022-10-20T17:53:38.606Z,8.63
2022-10-20T17:56:05.953Z,7.53
2022-10-20T17:58:33.822Z,8.17
2022-10-20T18:01:07.157Z,7.67
2022-10-20T18:03:33.644Z,7.63
2022-10-20T18:06:05.715Z,8.00
2022-10-20T18:08:32.235Z,8.43
2022-10-20T18:10:58.696Z,8.23
2022-10-20T18:13:25.202Z,8.97
2022-10-20T18:15:51.621Z,8.20
2022-10-20T18:18:18.116Z,8.47
2022-10-20T18:20:53.820Z,9.17
2022-10-20T18:23:20.268Z,8.27
2022-10-20T18:25:46.716Z,8.67
2022-10-20T18:30:48.054Z,9.17
2022-10-20T18:33:14.613Z,8.87
2022-10-20T18:35:41.084Z,9.10
2022-10-20T18:38:07.587Z,9.70
2022-10-20T18:40:34.084Z,8.93
2022-10-20T18:43:00.863Z,9.27
2022-10-20T18:45:27.740Z,8.93
2022-10-20T18:47:54.264Z,8.97
2022-10-20T18:50:20.728Z,9.30
2022-10-20T18:52:47.216Z,8.27
2022-10-20T18:55:13.690Z,8.43
2022-10-20T18:57:40.624Z,8.33
2022-10-20T19:00:07.786Z,8.50
2022-10-20T19:02:35.569Z,8.50
2022-10-20T19:05:02.805Z,8.63
2022-10-20T19:07:31.760Z,8.07
2022-10-20T19:09:58.263Z,8.47
2022-10-20T19:12:26.257Z,8.63
2022-10-20T19:14:52.722Z,7.33
2022-10-20T19:17:19.170Z,7.67
2022-10-20T19:19:46.653Z,7.33
2022-10-20T19:22:13.124Z,7.63
2022-10-20T19:24:40.780Z,6.43
2022-10-20T19:27:25.717Z,7.70
2022-10-20T19:29:53.312Z,6.93
2022-10-20T19:32:19.775Z,7.03
2022-10-20T19:34:46.316Z,7.20
2022-10-20T19:37:12.790Z,7.70
2022-10-20T19:39:40.214Z,7.53
2022-10-20T19:42:06.850Z,7.23
2022-10-20T19:44:33.558Z,8.20
2022-10-20T19:47:00.120Z,7.50
2022-10-20T19:49:26.587Z,8.40
2022-10-20T19:51:53.190Z,7.83
2022-10-20T19:54:19.662Z,6.83
2022-10-20T19:56:46.469Z,7.83
2022-10-20T19:59:13.117Z,8.20
2022-10-20T20:01:39.647Z,7.23
2022-10-20T20:04:06.475Z,7.67
2022-10-20T20:06:32.972Z,7.57
2022-10-20T20:09:00.311Z,8.27
2022-10-20T20:11:29.632Z,7.80
2022-10-20T20:14:05.861Z,8.27
2022-10-20T20:16:32.428Z,8.83
2022-10-20T20:18:58.981Z,8.03
2022-10-20T20:21:25.880Z,8.50
2022-10-20T20:24:00.549Z,8.43
2022-10-20T20:26:28.409Z,8.10
2022-10-20T20:28:55.427Z,8.03
2022-10-20T20:31:22.187Z,8.27
2022-10-20T20:33:49.002Z,8.17
2022-10-20T20:36:15.636Z,8.67
2022-10-20T20:38:42.509Z,8.17
2022-10-20T20:41:11.039Z,8.63
2022-10-20T20:43:37.605Z,8.57
2022-10-20T20:46:04.925Z,9.00
2022-10-20T20:48:31.448Z,9.20
2022-10-20T20:50:58.084Z,8.60
2022-10-20T20:53:24.707Z,8.63
2022-10-20T20:55:54.626Z,8.60
2022-10-20T20:58:21.133Z,8.60
2022-10-20T21:00:47.764Z,9.17
2022-10-20T21:03:14.299Z,9.47
2022-10-20T21:05:40.758Z,9.33
2022-10-20T21:08:07.319Z,9.87
2022-10-20T21:10:35.529Z,9.10
2022-10-20T21:13:02.070Z,8.47
2022-10-20T21:15:28.532Z,9.83
2022-10-20T21:17:55.139Z,8.53
2022-10-20T21:20:21.637Z,9.47
2022-10-20T21:22:48.182Z,9.70
2022-10-20T21:25:14.787Z,10.07
2022-10-20T21:27:41.255Z,8.83
2022-10-20T21:30:08.011Z,8.53
2022-10-20T21:32:34.720Z,10.53
2022-10-20T21:35:01.880Z,8.53
2022-10-20T21:37:28.465Z,8.43
2022-10-20T21:39:55.007Z,8.83
2022-10-20T21:42:21.566Z,10.20
2022-10-20T21:44:50.078Z,10.47
2022-10-20T21:47:16.582Z,9.87
2022-10-20T21:49:43.080Z,10.83
2022-10-20T21:52:09.566Z,9.57
2022-10-20T21:54:36.026Z,9.93
2022-10-20T21:57:02.923Z,10.53
2022-10-20T21:59:29.896Z,10.40
2022-10-20T22:01:57.202Z,10.00
2022-10-20T22:04:24.217Z,10.37
2022-10-20T22:06:50.777Z,10.50
2022-10-20T22:09:17.512Z,11.10
2022-10-20T22:11:44.847Z,10.83
2022-10-20T22:14:11.426Z,11.03
2022-10-20T22:16:38.788Z,10.70
2022-10-20T22:19:06.191Z,11.17
2022-10-20T22:21:32.694Z,10.40
2022-10-20T22:23:59.511Z,10.67
2022-10-20T22:26:27.127Z,10.87
2022-10-20T22:28:53.801Z,10.03
2022-10-20T22:31:20.343Z,10.73
2022-10-20T22:33:46.893Z,10.40
2022-10-20T22:36:13.424Z,11.67
2022-10-20T22:38:39.928Z,11.40
2022-10-20T22:41:06.476Z,11.80
2022-10-20T22:43:32.929Z,10.90
2022-10-20T22:45:59.482Z,12.07
2022-10-20T22:48:26.157Z,12.07
2022-10-20T22:50:52.702Z,11.30
2022-10-20T22:53:19.276Z,11.27
2022-10-20T22:55:45.782Z,10.13
2022-10-20T22:58:12.300Z,12.30
2022-10-20T23:00:41.976Z,11.50
2022-10-20T23:03:08.521Z,12.33
2022-10-20T23:05:34.986Z,11.77
2022-10-20T23:08:01.430Z,11.27
2022-10-20T23:10:27.958Z,10.80
2022-10-20T23:12:54.432Z,11.60
2022-10-20T23:15:20.959Z,12.40
2022-10-20T23:17:47.550Z,11.60
2022-10-20T23:20:14.121Z,12.50
2022-10-20T23:22:40.635Z,11.77
2022-10-20T23:25:07.300Z,11.90
2022-10-20T23:27:34.147Z,12.33
2022-10-20T23:30:00.708Z,12.80
2022-10-20T23:32:27.188Z,12.47
2022-10-20T23:34:53.882Z,12.33
2022-10-20T23:37:21.845Z,11.77
2022-10-20T23:39:48.357Z,12.40
2022-10-20T23:42:14.894Z,12.67
2022-10-20T23:44:43.128Z,11.80
2022-10-20T23:47:09.655Z,12.27
2022-10-20T23:49:36.180Z,11.70
2022-10-20T23:52:02.613Z,11.90
2022-10-20T23:54:29.144Z,12.67
2022-10-20T23:56:55.592Z,11.77
2022-10-20T23:59:22.173Z,11.03
